createdAt,value
2023-05-08T00:01:50.141Z,10.90
2023-05-08T00:04:21.025Z,11.68
2023-05-08T00:06:51.800Z,11.05
2023-05-08T00:09:21.410Z,11.82
2023-05-08T00:11:52.529Z,13.13
2023-05-08T00:14:21.421Z,12.23
2023-05-08T00:16:50.212Z,14.98
2023-05-08T00:19:20.785Z,10.73
2023-05-08T00:21:49.598Z,9.05
2023-05-08T00:24:18.327Z,12.87
2023-05-08T00:26:49.457Z,9.20
2023-05-08T00:29:19.242Z,17.20
2023-05-08T00:31:47.983Z,12.13
2023-05-08T00:34:16.898Z,12.20
2023-05-08T00:36:47.159Z,17.10
2023-05-08T00:39:16.597Z,12.00
2023-05-08T00:41:45.494Z,13.48
2023-05-08T00:44:15.425Z,10.68
2023-05-08T00:46:47.743Z,9.77
2023-05-08T00:49:19.196Z,11.10
2023-05-08T00:51:54.231Z,8.50
2023-05-08T00:54:23.673Z,10.00
2023-05-08T00:56:55.380Z,12.40
2023-05-08T00:59:27.200Z,9.75
2023-05-08T01:01:56.439Z,10.00
2023-05-08T01:04:28.919Z,12.38
2023-05-08T01:07:04.000Z,11.18
2023-05-08T01:09:33.317Z,12.50
2023-05-08T01:12:16.513Z,11.23
2023-05-08T01:15:01.964Z,12.87
2023-05-08T01:17:47.325Z,11.63
2023-05-08T01:20:41.219Z,19.75
2023-05-08T01:24:14.118Z,13.90
2023-05-08T01:27:43.321Z,13.07
2023-05-08T01:31:04.450Z,10.23
2023-05-08T01:33:47.613Z,13.00
2023-05-08T01:36:38.236Z,10.75
2023-05-08T01:39:18.737Z,8.50
2023-05-08T01:41:58.549Z,10.65
2023-05-08T01:44:36.202Z,15.77
2023-05-08T01:47:11.528Z,13.10
2023-05-08T01:49:46.274Z,11.00
2023-05-08T01:52:22.180Z,11.93
2023-05-08T01:55:00.862Z,10.15
2023-05-08T01:57:32.358Z,16.17
2023-05-08T02:00:05.270Z,10.75
2023-05-08T02:02:42.014Z,13.70
2023-05-08T02:05:15.591Z,12.10
2023-05-08T02:07:46.723Z,9.88
2023-05-08T02:10:17.664Z,11.07
2023-05-08T02:12:51.303Z,11.43
2023-05-08T02:15:24.365Z,13.57
2023-05-08T02:17:56.564Z,12.15
2023-05-08T02:20:29.067Z,11.85
2023-05-08T02:22:59.183Z,13.00
2023-05-08T02:25:30.617Z,13.00
2023-05-08T02:28:01.020Z,15.10
2023-05-08T02:30:31.448Z,11.38
2023-05-08T02:33:02.488Z,12.27
2023-05-08T02:35:33.630Z,8.20
2023-05-08T02:38:10.713Z,11.25
2023-05-08T02:40:45.569Z,11.95
2023-05-08T02:43:17.720Z,12.10
2023-05-08T02:45:53.645Z,10.18
2023-05-08T02:48:42.239Z,10.63
2023-05-08T02:51:23.501Z,29.38
2023-05-08T02:54:00.126Z,14.80
2023-05-08T02:56:39.150Z,16.23
2023-05-08T02:59:22.944Z,14.13
2023-05-08T03:02:01.239Z,10.87
2023-05-08T03:04:36.569Z,11.25
2023-05-08T03:07:08.150Z,8.57
2023-05-08T03:09:44.254Z,14.73
2023-05-08T03:12:23.626Z,11.70
2023-05-08T03:15:03.581Z,10.33
2023-05-08T03:17:38.218Z,7.85
2023-05-08T03:20:13.845Z,7.38
2023-05-08T03:22:48.343Z,8.90
2023-05-08T03:25:20.391Z,8.40
2023-05-08T03:27:53.197Z,12.03
2023-05-08T03:30:22.815Z,8.65
2023-05-08T03:33:03.192Z,7.53
2023-05-08T03:35:33.522Z,9.48
2023-05-08T03:38:04.110Z,19.95
2023-05-08T03:40:37.177Z,7.27
2023-05-08T03:43:08.614Z,8.70
2023-05-08T03:45:39.769Z,12.65
2023-05-08T03:48:11.684Z,11.05
2023-05-08T03:50:41.419Z,10.27
2023-05-08T03:53:13.247Z,8.37
2023-05-08T03:55:43.340Z,8.40
2023-05-08T03:58:23.352Z,7.40
2023-05-08T04:01:07.888Z,14.50
2023-05-08T04:03:57.247Z,10.50
2023-05-08T04:06:42.146Z,9.27
2023-05-08T04:09:28.057Z,11.88
2023-05-08T04:12:16.288Z,9.32
2023-05-08T04:14:50.972Z,8.35
2023-05-08T04:17:37.455Z,10.70
2023-05-08T04:20:13.366Z,10.67
2023-05-08T04:22:43.749Z,7.50
2023-05-08T04:25:16.522Z,8.35
2023-05-08T04:28:13.146Z,13.52
2023-05-08T04:30:42.857Z,7.07
2023-05-08T04:33:13.643Z,8.67
2023-05-08T04:35:42.483Z,12.35
2023-05-08T04:38:11.448Z,7.45
2023-05-08T04:40:41.704Z,9.65
2023-05-08T04:43:12.150Z,10.70
2023-05-08T04:45:40.875Z,10.33
2023-05-08T04:48:12.019Z,6.50
2023-05-08T04:50:45.082Z,7.95
2023-05-08T04:53:16.889Z,4.20
2023-05-08T04:55:47.316Z,7.63
2023-05-08T04:58:17.699Z,7.33
2023-05-08T05:00:46.880Z,6.22
2023-05-08T05:03:16.016Z,8.88
2023-05-08T05:05:45.226Z,5.32
2023-05-08T05:08:15.175Z,5.75
2023-05-08T05:10:44.381Z,6.53
2023-05-08T05:13:14.538Z,5.32
2023-05-08T05:15:44.978Z,3.33
2023-05-08T05:18:14.436Z,4.40
2023-05-08T05:20:43.391Z,3.92
2023-05-08T05:23:13.366Z,3.77
2023-05-08T05:25:42.210Z,3.47
2023-05-08T05:28:11.005Z,3.63
2023-05-08T05:30:41.476Z,7.43
2023-05-08T05:33:10.561Z,2.75
2023-05-08T05:35:39.809Z,5.37
2023-05-08T05:38:08.858Z,3.55
2023-05-08T05:40:37.667Z,3.63
2023-05-08T05:43:06.421Z,5.10
2023-05-08T05:45:36.236Z,3.38
2023-05-08T05:48:07.895Z,4.97
2023-05-08T05:50:37.988Z,2.13
2023-05-08T05:53:07.583Z,2.65
2023-05-08T05:55:36.323Z,3.25
2023-05-08T05:58:05.335Z,3.70
2023-05-08T06:00:35.362Z,3.43
2023-05-08T06:03:24.634Z,4.13
2023-05-08T06:06:04.227Z,5.30
2023-05-08T06:08:32.915Z,2.70
2023-05-08T06:11:02.743Z,4.22
2023-05-08T06:13:32.833Z,2.00
2023-05-08T06:16:02.870Z,1.38
2023-05-08T06:18:33.645Z,2.95
2023-05-08T06:21:07.017Z,2.92
2023-05-08T06:23:36.686Z,2.08
2023-05-08T06:26:05.784Z,4.23
2023-05-08T06:28:34.707Z,2.58
2023-05-08T06:31:04.987Z,2.70
2023-05-08T06:33:38.695Z,3.00
2023-05-08T06:36:12.704Z,2.47
2023-05-08T06:38:41.510Z,3.83
2023-05-08T06:41:15.461Z,5.25
2023-05-08T06:43:44.327Z,6.97
2023-05-08T06:46:13.117Z,1.95
2023-05-08T06:48:41.879Z,2.42
2023-05-08T06:51:12.054Z,3.63
2023-05-08T06:53:40.768Z,6.50
2023-05-08T06:56:09.724Z,3.70
2023-05-08T06:58:38.478Z,1.80
2023-05-08T07:01:07.397Z,3.13
2023-05-08T07:03:36.103Z,3.30
2023-05-08T07:06:04.955Z,3.40
2023-05-08T07:08:35.066Z,3.58
2023-05-08T07:11:03.995Z,2.28
2023-05-08T07:13:32.896Z,2.25
2023-05-08T07:16:01.739Z,4.17
2023-05-08T07:18:30.558Z,3.33
2023-05-08T07:20:59.299Z,3.13
2023-05-08T07:23:28.066Z,2.63
2023-05-08T07:25:58.089Z,1.88
2023-05-08T07:28:37.151Z,2.03
2023-05-08T07:31:07.203Z,3.08
2023-05-08T07:33:36.108Z,2.08
2023-05-08T07:36:05.244Z,3.88
2023-05-08T07:38:33.956Z,2.72
2023-05-08T07:41:05.434Z,1.90
2023-05-08T07:43:34.309Z,1.98
2023-05-08T07:46:03.113Z,1.38
2023-05-08T07:48:31.843Z,4.13
2023-05-08T07:51:00.556Z,5.68
2023-05-08T07:53:31.336Z,2.87
2023-05-08T07:56:00.256Z,2.00
2023-05-08T07:58:30.351Z,1.83
2023-05-08T08:00:59.616Z,2.05
2023-05-08T08:03:28.513Z,4.68
2023-05-08T08:05:57.648Z,2.27
2023-05-08T08:08:26.361Z,3.40
2023-05-08T08:10:55.105Z,2.75
2023-05-08T08:13:24.032Z,3.28
2023-05-08T08:15:54.242Z,3.17
2023-05-08T08:18:23.004Z,4.30
2023-05-08T08:20:51.736Z,2.47
2023-05-08T08:23:20.568Z,3.35
2023-05-08T08:25:49.522Z,2.00
2023-05-08T08:28:18.429Z,3.10
2023-05-08T08:30:47.185Z,2.67
2023-05-08T08:33:19.037Z,4.53
2023-05-08T08:35:48.122Z,3.25
2023-05-08T08:38:16.946Z,1.98
2023-05-08T08:40:45.892Z,2.45
2023-05-08T08:43:14.884Z,2.93
2023-05-08T08:45:43.533Z,1.77
2023-05-08T08:48:13.577Z,1.92
2023-05-08T08:50:48.644Z,3.72
2023-05-08T08:53:27.397Z,2.22
2023-05-08T08:55:59.389Z,1.60
2023-05-08T08:58:36.544Z,1.98
2023-05-08T09:01:10.724Z,4.75
2023-05-08T09:03:39.708Z,4.07
2023-05-08T09:06:11.070Z,1.92
2023-05-08T09:08:41.747Z,3.47
2023-05-08T09:11:10.509Z,6.55
2023-05-08T09:13:39.287Z,2.47
2023-05-08T09:16:08.676Z,3.65
2023-05-08T09:18:38.174Z,2.78
2023-05-08T09:21:09.432Z,5.67
2023-05-08T09:23:38.192Z,3.08
2023-05-08T09:26:06.897Z,2.55
2023-05-08T09:28:35.621Z,2.90
2023-05-08T09:31:04.517Z,4.60
2023-05-08T09:33:33.398Z,5.60
2023-05-08T09:36:02.355Z,6.28
2023-05-08T09:38:37.793Z,3.33
2023-05-08T09:41:12.330Z,2.05
2023-05-08T09:43:41.063Z,4.35
2023-05-08T09:46:25.815Z,2.10
2023-05-08T09:48:56.191Z,2.50
2023-05-08T09:51:25.453Z,5.32
2023-05-08T09:53:58.384Z,4.47
2023-05-08T09:56:36.717Z,2.28
2023-05-08T09:59:07.629Z,2.03
2023-05-08T10:01:39.737Z,6.18
2023-05-08T10:04:08.961Z,3.47
2023-05-08T10:06:37.896Z,2.20
2023-05-08T10:09:13.377Z,2.58
2023-05-08T10:11:43.806Z,3.77
2023-05-08T10:14:12.755Z,2.20
2023-05-08T10:16:46.102Z,2.15
2023-05-08T10:19:17.067Z,2.17
2023-05-08T10:21:50.083Z,6.03
2023-05-08T10:24:23.079Z,3.27
2023-05-08T10:27:07.533Z,5.50
2023-05-08T10:29:51.127Z,11.40
2023-05-08T10:32:22.062Z,3.80
2023-05-08T10:34:55.010Z,3.47
2023-05-08T10:37:24.104Z,2.07
2023-05-08T10:39:58.537Z,3.33
2023-05-08T10:42:28.921Z,4.95
2023-05-08T10:44:57.924Z,3.20
2023-05-08T10:47:37.878Z,2.88
2023-05-08T10:50:24.224Z,5.20
2023-05-08T10:53:04.020Z,5.00
2023-05-08T10:55:39.887Z,4.00
2023-05-08T10:58:16.305Z,2.35
2023-05-08T11:01:18.778Z,3.72
2023-05-08T11:03:51.710Z,1.73
2023-05-08T11:06:47.161Z,3.25
2023-05-08T11:09:24.462Z,2.45
2023-05-08T11:12:19.008Z,3.22
2023-05-08T11:14:59.836Z,3.05
2023-05-08T11:17:29.159Z,2.90
2023-05-08T11:20:00.809Z,2.92
2023-05-08T11:22:33.109Z,4.57
2023-05-08T11:25:06.895Z,2.47
2023-05-08T11:28:12.438Z,4.43
2023-05-08T11:30:41.721Z,3.53
2023-05-08T11:33:18.714Z,3.75
2023-05-08T11:35:59.244Z,3.75
2023-05-08T11:38:36.163Z,2.35
2023-05-08T11:41:08.378Z,3.38
2023-05-08T11:44:17.142Z,4.60
2023-05-08T11:46:53.000Z,3.22
2023-05-08T11:49:28.156Z,3.60
2023-05-08T11:52:01.303Z,3.47
2023-05-08T11:54:32.768Z,3.42
2023-05-08T11:57:01.911Z,3.93
2023-05-08T11:59:37.704Z,3.78
2023-05-08T12:02:08.965Z,4.15
2023-05-08T12:04:48.247Z,3.90
2023-05-08T12:07:18.721Z,5.13
2023-05-08T12:09:49.508Z,3.07
2023-05-08T12:12:18.346Z,3.53
2023-05-08T12:14:52.749Z,2.17
2023-05-08T12:17:21.984Z,4.05
2023-05-08T12:19:56.631Z,3.03
2023-05-08T12:22:26.119Z,3.80
2023-05-08T12:24:54.836Z,4.43
2023-05-08T12:27:23.650Z,3.10
2023-05-08T12:29:54.925Z,3.92
2023-05-08T12:32:23.884Z,4.28
2023-05-08T12:34:54.034Z,5.07
2023-05-08T12:37:29.515Z,4.57
2023-05-08T12:39:58.511Z,4.78
2023-05-08T12:42:43.798Z,2.90
2023-05-08T12:45:24.957Z,3.17
2023-05-08T12:47:59.327Z,4.67
2023-05-08T12:50:30.544Z,3.83
2023-05-08T12:53:05.694Z,2.60
2023-05-08T12:55:36.436Z,6.00
2023-05-08T12:58:08.232Z,3.92
2023-05-08T13:00:41.808Z,3.27
2023-05-08T13:03:13.851Z,3.35
2023-05-08T13:05:44.648Z,3.13
2023-05-08T13:08:14.189Z,6.50
2023-05-08T13:10:47.861Z,4.57
2023-05-08T13:13:19.011Z,5.30
2023-05-08T13:15:51.140Z,6.93
2023-05-08T13:18:22.412Z,4.68
2023-05-08T13:20:51.333Z,5.38
2023-05-08T13:23:20.858Z,5.57
2023-05-08T13:25:49.806Z,6.07
2023-05-08T13:28:18.749Z,6.43
2023-05-08T13:30:48.941Z,3.72
2023-05-08T13:33:17.743Z,4.25
2023-05-08T13:35:46.542Z,5.13
2023-05-08T13:38:15.467Z,5.07
2023-05-08T13:40:44.261Z,6.90
2023-05-08T13:43:12.984Z,4.60
2023-05-08T13:45:41.986Z,9.95
2023-05-08T13:48:12.136Z,7.55
2023-05-08T13:50:40.884Z,5.67
2023-05-08T13:53:09.737Z,4.60
2023-05-08T13:55:38.726Z,6.63
2023-05-08T13:58:07.462Z,4.30
2023-05-08T14:00:36.131Z,4.10
2023-05-08T14:03:05.326Z,4.73
2023-05-08T14:05:36.098Z,5.65
2023-05-08T14:08:05.074Z,2.80
2023-05-08T14:10:33.979Z,3.53
2023-05-08T14:13:02.781Z,2.85
2023-05-08T14:15:36.924Z,3.63
2023-05-08T14:18:07.443Z,5.78
2023-05-08T14:20:37.879Z,5.65
2023-05-08T14:23:06.629Z,5.00
2023-05-08T14:25:35.429Z,3.88
2023-05-08T14:28:04.207Z,3.70
2023-05-08T14:30:32.833Z,3.88
2023-05-08T14:33:01.894Z,4.85
2023-05-08T14:35:33.002Z,3.22
2023-05-08T14:38:03.246Z,3.65
2023-05-08T14:40:31.910Z,5.17
2023-05-08T14:43:00.696Z,4.22
2023-05-08T14:45:29.368Z,4.35
2023-05-08T14:47:58.137Z,5.18
2023-05-08T14:50:27.867Z,5.40
2023-05-08T14:52:56.701Z,6.73
2023-05-08T14:55:27.668Z,3.97
2023-05-08T14:57:56.569Z,3.95
2023-05-08T15:00:25.466Z,4.47
2023-05-08T15:02:54.337Z,2.83
2023-05-08T15:05:23.416Z,6.00
2023-05-08T15:07:52.182Z,4.70
2023-05-08T15:10:21.015Z,2.92
2023-05-08T15:12:51.796Z,4.03
2023-05-08T15:15:20.670Z,2.63
2023-05-08T15:17:49.448Z,4.13
2023-05-08T15:20:18.186Z,4.95
2023-05-08T15:22:46.891Z,6.10
2023-05-08T15:25:15.897Z,4.10
2023-05-08T15:27:44.884Z,2.92
2023-05-08T15:30:16.492Z,5.17
2023-05-08T15:32:45.292Z,3.08
2023-05-08T15:35:14.615Z,3.88
2023-05-08T15:37:43.770Z,4.05
2023-05-08T15:40:13.945Z,3.42
2023-05-08T15:42:42.640Z,3.60
2023-05-08T15:45:12.170Z,3.42
2023-05-08T15:47:42.456Z,5.50
2023-05-08T15:50:12.512Z,2.40
2023-05-08T15:52:41.297Z,3.95
2023-05-08T15:55:11.231Z,4.23
2023-05-08T15:57:40.250Z,4.07
2023-05-08T16:00:10.970Z,4.10
2023-05-08T16:02:41.816Z,3.72
2023-05-08T16:05:12.068Z,4.38
2023-05-08T16:07:43.881Z,4.37
2023-05-08T16:10:15.350Z,7.63
2023-05-08T16:13:14.148Z,4.80
2023-05-08T16:15:45.045Z,11.45
2023-05-08T16:18:15.269Z,7.43
2023-05-08T16:20:44.989Z,3.10
2023-05-08T16:23:15.297Z,3.13
2023-05-08T16:25:44.102Z,4.63
2023-05-08T16:28:12.890Z,4.68
2023-05-08T16:30:42.056Z,5.57
2023-05-08T16:33:12.205Z,5.03
2023-05-08T16:35:42.768Z,6.18
2023-05-08T16:38:11.738Z,3.83
2023-05-08T16:40:42.568Z,4.22
2023-05-08T16:43:11.379Z,4.65
2023-05-08T16:45:40.703Z,5.23
2023-05-08T16:48:09.610Z,4.68
2023-05-08T16:50:38.593Z,3.92
2023-05-08T16:53:09.138Z,4.10
2023-05-08T16:55:38.167Z,3.38
2023-05-08T16:58:07.368Z,3.33
2023-05-08T17:00:36.423Z,3.58
2023-05-08T17:03:05.802Z,6.13
2023-05-08T17:05:35.774Z,2.35
2023-05-08T17:08:04.697Z,4.20
2023-05-08T17:10:35.152Z,3.93
2023-05-08T17:13:03.938Z,4.35
2023-05-08T17:15:32.750Z,3.65
2023-05-08T17:18:07.324Z,5.03
2023-05-08T17:20:41.130Z,6.30
2023-05-08T17:23:12.994Z,4.67
2023-05-08T17:25:45.347Z,3.58
2023-05-08T17:28:14.567Z,4.68
2023-05-08T17:30:44.512Z,4.63
2023-05-08T17:33:14.709Z,4.05
2023-05-08T17:35:43.522Z,4.03
2023-05-08T17:38:12.419Z,3.58
2023-05-08T17:40:42.622Z,4.35
2023-05-08T17:46:02.408Z,3.75
2023-05-08T17:48:31.142Z,4.03
2023-05-08T17:51:02.613Z,4.63
2023-05-08T17:53:39.863Z,5.57
2023-05-08T17:56:10.973Z,5.70
2023-05-08T17:58:42.221Z,5.85
2023-05-08T18:01:11.010Z,3.83
2023-05-08T18:03:40.962Z,3.13
2023-05-08T18:06:09.797Z,2.22
2023-05-08T18:08:40.124Z,3.28
2023-05-08T18:11:19.605Z,3.67
2023-05-08T18:13:49.208Z,2.77
2023-05-08T18:16:24.211Z,3.83
2023-05-08T18:18:55.409Z,3.63
2023-05-08T18:21:40.043Z,4.80
2023-05-08T18:24:09.687Z,6.57
2023-05-08T18:26:40.028Z,5.80
2023-05-08T18:29:16.792Z,4.82
2023-05-08T18:31:55.348Z,7.95
2023-05-08T18:34:23.979Z,7.15
2023-05-08T18:36:56.016Z,5.85
2023-05-08T18:39:27.278Z,7.10
2023-05-08T18:41:59.759Z,6.15
2023-05-08T18:44:29.856Z,7.50
2023-05-08T18:47:11.114Z,6.35
2023-05-08T18:49:45.811Z,6.45
2023-05-08T18:52:15.297Z,8.93
2023-05-08T18:54:45.279Z,7.55
2023-05-08T18:57:17.029Z,5.82
2023-05-08T18:59:46.923Z,12.57
2023-05-08T19:02:15.781Z,9.88
2023-05-08T19:04:48.121Z,8.27
2023-05-08T19:07:17.109Z,13.10
2023-05-08T19:09:46.264Z,13.90
2023-05-08T19:12:18.390Z,12.68
2023-05-08T19:14:49.109Z,12.20
2023-05-08T19:17:21.351Z,10.43
2023-05-08T19:19:52.998Z,9.95
2023-05-08T19:22:21.896Z,10.20
2023-05-08T19:24:52.395Z,8.20
2023-05-08T19:27:22.645Z,10.15
2023-05-08T19:29:51.434Z,8.63
2023-05-08T19:32:20.288Z,9.00
2023-05-08T19:34:49.342Z,5.57
2023-05-08T19:37:18.690Z,11.10
2023-05-08T19:39:47.829Z,7.22
2023-05-08T19:42:16.857Z,9.80
2023-05-08T19:44:47.134Z,8.43
2023-05-08T19:47:16.700Z,7.95
2023-05-08T19:49:47.053Z,10.32
2023-05-08T19:52:15.828Z,7.35
2023-05-08T19:54:45.818Z,7.50
2023-05-08T19:57:14.924Z,9.63
2023-05-08T19:59:44.156Z,7.97
2023-05-08T20:02:20.321Z,9.82
2023-05-08T20:05:22.567Z,11.95
2023-05-08T20:07:53.030Z,11.97
2023-05-08T20:10:33.595Z,9.80
2023-05-08T20:13:06.607Z,8.90
2023-05-08T20:16:19.277Z,6.90
2023-05-08T20:18:49.778Z,6.70
2023-05-08T20:21:19.213Z,6.73
2023-05-08T20:24:26.939Z,5.57
2023-05-08T20:27:04.672Z,6.28
2023-05-08T20:29:37.134Z,6.03
2023-05-08T20:32:14.993Z,5.10
2023-05-08T20:34:45.975Z,4.90
2023-05-08T20:37:17.120Z,7.25
2023-05-08T20:39:46.299Z,5.45
2023-05-08T20:42:15.261Z,7.18
2023-05-08T20:44:44.204Z,6.75
2023-05-08T20:47:12.849Z,8.57
2023-05-08T20:49:41.898Z,8.77
2023-05-08T20:52:12.045Z,8.73
2023-05-08T20:54:40.828Z,13.65
2023-05-08T20:57:09.541Z,11.30
2023-05-08T20:59:38.302Z,14.60
2023-05-08T21:02:07.187Z,12.52
2023-05-08T21:04:36.042Z,10.60
2023-05-08T21:07:04.993Z,16.75
2023-05-08T21:09:35.181Z,11.27
2023-05-08T21:12:03.925Z,12.10
2023-05-08T21:14:32.726Z,12.98
2023-05-08T21:17:01.408Z,12.02
2023-05-08T21:19:33.277Z,17.67
2023-05-08T21:22:01.892Z,10.57
2023-05-08T21:24:32.030Z,11.70
2023-05-08T21:27:02.178Z,11.30
2023-05-08T21:29:32.271Z,15.05
2023-05-08T21:32:01.577Z,13.07
2023-05-08T21:34:30.478Z,14.05
2023-05-08T21:36:59.186Z,15.50
2023-05-08T21:39:27.915Z,12.73
2023-05-08T21:41:57.370Z,13.52
2023-05-08T21:44:37.099Z,15.27
2023-05-08T21:47:06.540Z,12.70
2023-05-08T21:49:46.314Z,13.57
2023-05-08T21:52:22.106Z,12.73
2023-05-08T21:54:53.019Z,15.02
2023-05-08T21:57:22.395Z,15.65
2023-05-08T21:59:52.549Z,19.60
2023-05-08T22:02:27.136Z,15.27
2023-05-08T22:04:58.137Z,12.48
2023-05-08T22:07:26.906Z,16.27
2023-05-08T22:09:59.730Z,12.75
2023-05-08T22:12:28.712Z,17.30
2023-05-08T22:14:58.853Z,16.13
2023-05-08T22:17:35.576Z,17.95
2023-05-08T22:20:05.466Z,15.07
2023-05-08T22:22:34.565Z,15.52
2023-05-08T22:25:03.335Z,15.38
2023-05-08T22:27:34.292Z,12.37
2023-05-08T22:30:04.816Z,15.23
2023-05-08T22:32:35.419Z,18.23
2023-05-08T22:35:14.028Z,19.00
2023-05-08T22:37:42.955Z,18.13
2023-05-08T22:40:12.734Z,22.03
2023-05-08T22:42:41.656Z,20.13
2023-05-08T22:45:14.259Z,18.55
2023-05-08T22:47:43.610Z,19.45
2023-05-08T22:50:13.986Z,18.55
2023-05-08T22:52:46.287Z,15.20
2023-05-08T22:55:16.567Z,16.17
2023-05-08T22:57:45.869Z,16.17
2023-05-08T23:00:17.494Z,22.60
2023-05-08T23:02:46.300Z,22.98
2023-05-08T23:05:22.808Z,14.40
2023-05-08T23:07:52.867Z,18.38
2023-05-08T23:10:21.738Z,20.05
2023-05-08T23:12:51.095Z,18.95
2023-05-08T23:15:22.369Z,17.83
2023-05-08T23:17:51.588Z,20.27
2023-05-08T23:20:20.575Z,19.13
2023-05-08T23:22:49.299Z,22.00
2023-05-08T23:25:18.033Z,13.93
2023-05-08T23:27:46.669Z,18.30
2023-05-08T23:30:18.707Z,19.20
2023-05-08T23:32:52.442Z,15.35
2023-05-08T23:35:23.182Z,16.98
2023-05-08T23:37:51.885Z,15.82
2023-05-08T23:40:49.067Z,17.20
2023-05-08T23:43:17.855Z,14.80
2023-05-08T23:45:46.831Z,15.40
2023-05-08T23:48:18.314Z,14.10
2023-05-08T23:50:48.189Z,15.05
2023-05-08T23:53:20.158Z,14.93
2023-05-08T23:55:52.413Z,17.40
2023-05-08T23:58:21.477Z,14.70
